• Join FlightAware (Why Join?)
  • Login
  • US Flag 
09:10AM EST


 

Airport Tracker/Info


-or-


 

Live Flight TrackerFlight Track Log ✈ UAL407 ✈ 06-Sep-2013 ✈ KDEN - KSEA

Flight Track Log - Related Links

Times and Time Zones

All times are in EDT time to prevent confusion due to time zone crossing. See the UAL407 flight status page for this flight to view local times or setup timezone preferences in your user account.

Time Position Orientation Groundspeed Altitude Reporting Facility
EDT Latitude Longitude Course Direction KTS MPH feet Rate Location/Type
09:37PM 39.8500 -104.7833 270° West 195 224 6,900  Level Denver TRACON
09:38PM 39.8333 -104.8833 258° West 264 304 8,000 1,320 Climbing Denver TRACON
09:39PM 40.0596 -105.0216 281° West  Level Estimated
09:39PM 39.8175 -104.9297 246° West 268 308 9,100  Level Denver Center
09:40PM 40.0258 -105.1595 252° West  Level FlightAware Approximate
09:40PM 39.7914 -105.0322 252° West 298 343 11,000  Level Denver Center
09:41PM 40.0919 -105.2757 270° West  Level Estimated
09:41PM 39.7631 -105.1444 252° West 307 353 13,300  Level Denver Center
09:42PM 40.1580 -105.3921 270° West  Level Estimated
09:42PM 39.7361 -105.2528 252° West 314 361 15,000  Level Denver Center
09:43PM 39.7111 -105.3881 257° West 362 417 16,400 1,620 Climbing Denver Center
09:44PM 39.7081 -105.5208 268° West 368 423 18,400 1,740 Climbing Denver Center
09:45PM 39.7147 -105.6550 274° West 370 426 20,100 1,320 Climbing Denver Center
09:46PM 39.7639 -105.7964 294° West 404 465 21,200 1,320 Climbing Denver Center
09:47PM 39.8128 -105.9264 296° West 398 458 22,900 1,380 Climbing Denver Center
09:48PM 39.8608 -106.0567 296° West 400 460 24,100 1,080 Climbing Denver Center
09:49PM 39.9003 -106.1967 290° West 411 473 25,200 1,140 Climbing Denver Center
09:50PM 39.9369 -106.3378 289° West 413 475 26,500 960 Climbing Denver Center
09:51PM 40.0100 -106.4597 308° West 425 489 27,300 840 Climbing Denver Center
09:52PM 40.0678 -106.6158 296° West 439 505 28,300 780 Climbing Denver Center
09:53PM 40.1267 -106.7772 296° West 442 509 28,900 780 Climbing Denver Center
09:54PM 40.1781 -106.9206 295° West 452 520 29,900 900 Climbing Denver Center
09:55PM 40.2394 -107.0881 296° West 457 526 30,800 960 Climbing Denver Center
09:56PM 40.2906 -107.2317 295° West 457 526 32,000 840 Climbing Denver Center
09:57PM 40.3436 -107.3750 296° West 457 526 32,600 540 Climbing Denver Center
09:58PM 40.4031 -107.5450 295° West 459 528 33,200 600 Climbing Denver Center
09:59PM 40.4558 -107.6919 295° West 464 534 33,900 780 Climbing Denver Center
10:00PM 40.5169 -107.8625 295° West 464 534 34,900 720 Climbing Denver Center
10:01PM 40.5686 -108.0097 295° West 465 535 35,500 480 Climbing Denver Center
10:02PM 40.6286 -108.1803 295° West 463 533 36,000 240 Climbing Denver Center
10:03PM 40.6792 -108.3275 294° West 462 532 36,000  Level Denver Center
10:04PM 40.7350 -108.4917 294° West 470 541 36,000  Level Denver Center
10:05PM 40.7942 -108.6653 294° West 465 535 36,000 -60 Level Denver Center
10:06PM 40.8444 -108.8125 294° West 459 528 35,900 -60 Descending Denver Center
10:07PM 40.8867 -108.9356 294° West 459 528 35,900  Level Salt Lake Center
10:08PM 40.9358 -109.0828 294° West 457 526 35,900  Level Salt Lake Center
10:09PM 40.9853 -109.2300 294° West 456 525 36,000  Climbing Salt Lake Center
10:10PM 41.0428 -109.4022 294° West 455 524 36,000  Level Salt Lake Center
10:11PM 41.0925 -109.5511 294° West 457 526 36,000  Level Salt Lake Center
10:12PM 41.1411 -109.6997 294° West 456 525 36,000  Level Salt Lake Center
10:13PM 41.1981 -109.8703 294° West 452 520 36,000 -60 Level Salt Lake Center
10:14PM 41.2442 -110.0150 293° West 446 513 35,900 -60 Descending Salt Lake Center
10:15PM 41.2992 -110.1847 293° West 447 514 35,900  Level Salt Lake Center
10:16PM 41.3464 -110.3308 293° West 448 516 35,900  Level Salt Lake Center
10:17PM 41.3964 -110.4764 295° West 450 518 36,000  Climbing Salt Lake Center
10:18PM 41.4669 -110.6408 300° West 454 522 36,000  Level Salt Lake Center
10:19PM 41.5267 -110.7817 300° West 455 524 36,000  Level Salt Lake Center
10:20PM 41.5942 -110.9492 298° West 456 525 36,000  Level Salt Lake Center
10:21PM 41.6578 -111.0967 300° West 459 528 36,000  Level Salt Lake Center
10:23PM 41.7169 -111.2447 298° West 455 524 36,000  Level Salt Lake Center
10:24PM 41.7767 -111.3917 299° West 454 522 36,000  Level Salt Lake Center
10:25PM 41.8361 -111.5386 299° West 452 520 36,000  Level Salt Lake Center
10:26PM 41.8950 -111.6858 298° West 450 518 36,000  Level Salt Lake Center
10:27PM 41.9664 -111.8622 299° West 452 520 36,000  Level Salt Lake Center
10:28PM 42.0264 -112.0117 298° West 456 525 36,000  Level Salt Lake Center
10:29PM 42.0853 -112.1614 298° West 456 525 36,000  Level Salt Lake Center
10:30PM 42.1442 -112.3100 298° West 453 521 36,000  Level Salt Lake Center
10:31PM 42.2047 -112.4592 299° West 455 524 36,000  Level Salt Lake Center
10:32PM 42.2794 -112.5986 306° West 461 531 36,000  Level Salt Lake Center
10:33PM 42.3542 -112.7392 306° West 463 533 36,000  Level Salt Lake Center
10:34PM 42.4283 -112.8792 306° West 460 529 36,000  Level Salt Lake Center
10:35PM 42.5175 -113.0464 306° West 459 528 36,000  Level Salt Lake Center
10:36PM 42.5914 -113.1883 305° West 461 531 36,000  Level Salt Lake Center
10:37PM 42.6658 -113.3283 306° West 459 528 36,000  Level Salt Lake Center
10:38PM 42.7372 -113.4642 306° West 456 525 36,000  Level Salt Lake Center
10:39PM 42.8186 -113.6228 305° West 457 526 36,000  Level Salt Lake Center
10:40PM 42.8886 -113.7581 305° West 457 526 36,000 -60 Level Salt Lake Center
10:41PM 42.9558 -113.8958 304° West 463 533 35,900  Descending Salt Lake Center
10:42PM 43.0433 -114.0656 305° West 456 525 36,000  Climbing Salt Lake Center
10:43PM 43.1164 -114.2078 305° West 459 528 36,000  Level Salt Lake Center
10:44PM 43.1908 -114.3536 305° West 461 531 36,000  Level Salt Lake Center
10:45PM 43.2644 -114.4975 305° West 461 531 36,000  Level Salt Lake Center
10:46PM 43.3364 -114.6417 304° West 459 528 36,000  Level Salt Lake Center
10:47PM 43.4083 -114.7872 304° West 461 531 36,000  Level Salt Lake Center
10:48PM 43.4808 -114.9319 305° West 460 529 36,000 -60 Level Salt Lake Center
10:49PM 43.5528 -115.0772 304° West 459 528 35,900  Descending Salt Lake Center
10:50PM 43.6253 -115.2256 304° West 465 535 36,000  Climbing Salt Lake Center
10:51PM 43.7128 -115.4042 304° West 468 539 36,000  Level Salt Lake Center
10:52PM 43.7847 -115.5528 304° West 467 537 36,000  Level Salt Lake Center
10:53PM 43.8575 -115.7019 304° West 468 539 36,000  Level Salt Lake Center
10:54PM 43.9297 -115.8533 304° West 469 540 36,000 -60 Level Salt Lake Center
10:55PM 44.0003 -116.0025 303° West 463 533 35,900  Descending Salt Lake Center
10:56PM 44.0772 -116.1492 306° West 466 536 36,000  Climbing Salt Lake Center
10:57PM 44.1522 -116.2967 305° West 464 534 36,000  Level Salt Lake Center
10:58PM 44.2272 -116.4447 305° West 462 532 36,000 -60 Level Salt Lake Center
10:59PM 44.3033 -116.5936 306° West 465 535 35,900  Descending Salt Lake Center
11:00PM 44.3789 -116.7431 305° West 467 537 36,000  Climbing Salt Lake Center
11:01PM 44.4550 -116.8933 305° West 471 542 36,000  Level Salt Lake Center
11:02PM 44.5456 -117.0739 305° West 472 543 36,000  Level Salt Lake Center
11:04PM 44.6200 -117.2231 305° West 468 539 36,000  Level Salt Lake Center
11:05PM 44.6944 -117.3739 305° West 470 541 36,000  Level Salt Lake Center
11:06PM 44.7700 -117.5244 305° West 470 541 36,000  Level Salt Lake Center
11:07PM 44.8425 -117.6753 304° West 467 537 36,000  Level Salt Lake Center
11:07PM 44.8861 -117.7650 304° West 464 534 36,000 -120 Level Seattle Center
11:08PM 44.9581 -117.9136 304° West 461 531 35,900 -60 Descending Seattle Center
11:09PM 45.0383 -118.0572 308° West 466 536 35,900  Level Seattle Center
11:10PM 45.1250 -118.1819 315° West 472 543 36,000  Climbing Seattle Center
11:11PM 45.2347 -118.3414 314° West 473 544 36,000  Level Seattle Center
11:12PM 45.3256 -118.4744 314° West 472 543 36,000  Level Seattle Center
11:13PM 45.4153 -118.6075 314° West 470 541 36,000  Level Seattle Center
11:14PM 45.5053 -118.7408 314° West 470 541 36,000 -60 Level Seattle Center
11:15PM 45.5942 -118.8744 314° West 469 540 35,900 -540 Descending Seattle Center
11:16PM 45.6817 -119.0033 314° West 461 531 35,000 -960 Descending Seattle Center
11:17PM 45.7631 -119.1281 313° West 443 510 34,000 -1,020 Descending Seattle Center
11:18PM 45.8503 -119.2597 314° West 454 522 33,000 -960 Descending Seattle Center
11:19PM 45.9358 -119.3889 314° West 451 519 32,100 -960 Descending Seattle Center
11:20PM 46.0206 -119.5189 313° West 448 516 31,100 -1,020 Descending Seattle Center
11:21PM 46.1014 -119.6422 313° West 433 498 30,100 -600 Descending Seattle Center
11:22PM 46.1811 -119.7650 313° West 424 488 29,900 -60 Descending Seattle Center
11:23PM 46.2564 -119.8939 310° West 422 486 30,000  Climbing Seattle Center
11:24PM 46.3444 -120.0472 310° West 417 480 29,900  Descending Seattle Center
11:25PM 46.4172 -120.1767 309° West 416 479 30,000  Climbing Seattle Center
11:26PM 46.4900 -120.3047 310° West 415 478 30,000 -120 Level Seattle Center
11:27PM 46.5633 -120.4347 309° West 416 479 29,800 -600 Descending Seattle Center
11:28PM 46.6294 -120.5725 305° West 417 480 28,800 -960 Descending Seattle Center
11:29PM 46.6939 -120.7067 305° West 408 470 27,900 -960 Descending Seattle Center
11:30PM 46.7553 -120.8383 304° West 399 459 26,900 -1,020 Descending Seattle Center
11:32PM 46.8169 -120.9672 305° West 393 452 25,900 -960 Descending Seattle Center
11:33PM 46.8772 -121.0967 304° West 388 447 25,000 -1,140 Descending Seattle Center
11:34PM 46.9375 -121.2228 305° West 379 436 23,600 -1,740 Descending Seattle Center
11:34PM 46.9742 -121.2994 305° West 376 433 22,400 -1,920 Descending Seattle Center
11:35PM 46.9956 -121.3475 303° West 373 429 21,700 -1,920 Descending Seattle Center
11:35PM 47.0431 -121.4500 304° West 363 418 20,100 -2,100 Descending Seattle Center
11:36PM 47.0614 -121.4892 305° West 366 421 19,600 -1,500 Descending Seattle Center
11:36PM 47.0989 -121.5686 305° West 347 399 18,600 -1,620 Descending Seattle Center
11:37PM 47.1142 -121.6050 302° West 352 405 18,000 -1,740 Descending Seattle Center
11:37PM 47.1553 -121.6906 305° West 334 384 16,900 -1,500 Descending Seattle Center
11:38PM 47.1661 -121.7164 302° West 336 387 16,500 -1,920 Descending Seattle Center
11:38PM 47.2067 -121.8022 305° West 327 376 15,000 -1,980 Descending Seattle Center
11:39PM 47.2169 -121.8267 302° West 329 379 14,500 -1,680 Descending Seattle Center
11:39PM 47.2511 -121.9050 303° West 325 374 13,500 -1,680 Descending Seattle Center
11:40PM 47.2708 -121.9436 307° West 323 372 12,800 -1,740 Descending Seattle Center
11:40PM 47.3025 -122.0172 302° West 311 358 11,600 -1,800 Descending Seattle Center
11:41PM 47.3175 -122.0489 305° West 310 357 11,000 -1,500 Descending Seattle Center
11:41PM 47.3578 -122.1369 304° West 304 350 10,000 -1,020 Descending Seattle Center
11:42PM 47.3639 -122.1508 303° West 300 345 10,000  Level Seattle Center
11:42PM 47.4031 -122.1839 330° Northwest 280 322 10,000 -420 Level Seattle Center
11:43PM 47.4328 -122.1886 354° North 275 316 9,600 -1,620 Descending Seattle Center
11:44PM 47.5089 -122.1972 356° North 277 319 7,800 -1,920 Descending Seattle Center
11:44PM 47.5675 -122.2011 357° North 276 318 6,300 -2,100 Descending Seattle Center
11:45PM 47.5897 -122.2047 354° North 273 314 5,700 -1,440 Descending Seattle Center
11:45PM 47.6364 -122.2089 357° North 271 312 5,000 -720 Descending Seattle Center
11:46PM 47.6633 -122.2136 353° North 267 307 5,000 -600 Level Seattle Center
11:47PM 47.7000 -122.2592 320° Northwest 226 260 4,300 -840 Descending Seattle Center
11:47PM 47.6989 -122.2708 262° West 234 269 4,200 -300 Descending Seattle Center
11:48PM 47.6619 -122.3100 216° Southwest 191 220 4,000 -240 Descending Seattle Center
11:48PM 47.6542 -122.3119 190° South 195 224 4,000 -900 Level Seattle Center
11:49PM 47.6086 -122.3197 187° South 186 214 3,100 -1,020 Descending Seattle Center
11:49PM 47.6019 -122.3172 166° South 189 217 3,000 -840 Descending Seattle Center
11:50PM 47.5592 -122.3175 180° South 176 203 2,300 -1,020 Descending Seattle Center
11:50PM 47.5489 -122.3181 182° South 177 204 2,000 -900 Descending Seattle Center
11:50PM 47.5197 -122.3194 182° South 156 180 1,500 -600 Descending Seattle Center
11:51PM 47.5069 -122.3175 174° South 154 177 1,400 -660 Descending Seattle Center
11:52PM 47.4731 -122.3192 182° South 132 152 700 -840 Descending Seattle Center
11:52PM 47.4694 -122.3178 165° South 138 159 600 -300 Descending Seattle Center
11:53PM 47.4381 -122.3192 182° South 137 158 400 -240 Descending Seattle Center